Time;durP1;ratioP1;P1;durP2;ratioP2;P2;SDS_P1;SDS_P2;PMS_P1;PMS_P2;Temp;Humidity;BMP_temperature;BMP_pressure;BME280_temperature;BME280_humidity;BME280_pressure;Samples;Min_cycle;Max_cycle;Signal;HPM_P1;HPM_P2
2022/03/21 00:00:25;;;;;;;14.05;10.60;;;;;;;;;;5030400;28;20206;-78
2022/03/21 00:02:54;;;;;;;13.60;10.93;;;;;;;;;;5032169;28;20195;-78
2022/03/21 00:05:21;;;;;;;20.58;13.40;;;;;;;;;;5033213;28;20262;-78
2022/03/21 00:07:49;;;;;;;18.48;13.38;;;;;;;;;;5029695;28;20210;-78
2022/03/21 00:10:16;;;;;;;12.07;10.25;;;;;;;;;;5033934;28;20683;-78
2022/03/21 00:12:43;;;;;;;14.43;10.05;;;;;;;;;;5026660;28;20195;-78
2022/03/21 00:15:11;;;;;;;13.68;10.07;;;;;;;;;;5029809;28;20199;-79
2022/03/21 00:17:40;;;;;;;14.68;11.55;;;;;;;;;;5032768;28;20558;-78
2022/03/21 00:20:10;;;;;;;11.52;10.38;;;;;;;;;;5031711;28;20282;-78
2022/03/21 00:22:37;;;;;;;20.27;12.80;;;;;;;;;;5029390;28;20227;-78
2022/03/21 00:25:05;;;;;;;12.88;10.40;;;;;;;;;;5033617;28;20245;-77
2022/03/21 00:27:32;;;;;;;14.68;12.20;;;;;;;;;;5031352;28;20200;-78
2022/03/21 00:30:00;;;;;;;14.73;12.40;;;;;;;;;;5030706;28;20586;-78
2022/03/21 00:32:27;;;;;;;14.98;11.63;;;;;;;;;;5027378;28;20206;-78
2022/03/21 00:34:54;;;;;;;16.45;12.65;;;;;;;;;;5031184;28;20191;-78
2022/03/21 00:37:24;;;;;;;12.95;11.55;;;;;;;;;;5026198;28;20578;-78
2022/03/21 00:39:51;;;;;;;16.33;12.93;;;;;;;;;;5029984;28;20267;-78
2022/03/21 00:42:18;;;;;;;14.35;11.43;;;;;;;;;;5031674;28;20200;-78
2022/03/21 00:44:45;;;;;;;15.15;10.95;;;;;;;;;;5031948;28;20647;-78
2022/03/21 00:47:14;;;;;;;10.73;9.35;;;;;;;;;;5031953;28;20202;-79
2022/03/21 00:49:42;;;;;;;17.60;13.60;;;;;;;;;;5032600;28;20222;-79
2022/03/21 00:52:09;;;;;;;18.40;13.80;;;;;;;;;;5027862;28;20228;-79
2022/03/21 00:54:38;;;;;;;14.57;12.50;;;;;;;;;;5029600;28;20219;-79
2022/03/21 00:57:05;;;;;;;15.63;11.93;;;;;;;;;;5027628;28;20226;-78
2022/03/21 00:59:32;;;;;;;12.93;11.07;;;;;;;;;;5032869;28;20198;-79
2022/03/21 01:01:59;;;;;;;21.23;13.80;;;;;;;;;;5031470;28;20192;-78
2022/03/21 01:04:26;;;;;;;17.35;12.40;;;;;;;;;;5030778;28;20204;-79
2022/03/21 01:06:53;;;;;;;16.27;12.77;;;;;;;;;;5029371;28;20203;-80
2022/03/21 01:09:20;;;;;;;12.82;10.73;;;;;;;;;;5026756;28;20192;-79
2022/03/21 01:11:49;;;;;;;16.23;14.20;;;;;;;;;;5023888;28;20219;-79
2022/03/21 01:14:16;;;;;;;16.92;14.43;;;;;;;;;;5028276;28;20215;-79
2022/03/21 01:16:43;;;;;;;13.88;11.05;;;;;;;;;;5028577;28;20653;-78
2022/03/21 01:19:10;;;;;;;14.65;10.73;;;;;;;;;;5031964;28;20295;-78
2022/03/21 01:21:37;;;;;;;14.50;10.57;;;;;;;;;;5031868;28;20415;-79
2022/03/21 01:24:05;;;;;;;14.68;12.05;;;;;;;;;;5029213;28;20195;-79
2022/03/21 01:26:32;;;;;;;12.98;10.68;;;;;;;;;;5029968;28;20218;-79
2022/03/21 01:29:00;;;;;;;15.10;13.52;;;;;;;;;;5031479;28;20196;-79
2022/03/21 01:31:27;;;;;;;18.50;13.30;;;;;;;;;;5027401;28;20990;-78
2022/03/21 01:33:54;;;;;;;22.08;14.38;;;;;;;;;;5030038;28;20682;-78
2022/03/21 01:36:22;;;;;;;22.38;15.98;;;;;;;;;;5029193;28;20196;-79
2022/03/21 01:38:49;;;;;;;18.13;12.10;;;;;;;;;;5026859;28;20210;-78
2022/03/21 01:41:16;;;;;;;15.57;12.95;;;;;;;;;;5030378;28;20195;-78
2022/03/21 01:43:56;;;;;;;19.80;13.23;;;;;;;;;;5026779;28;20195;-78
2022/03/21 01:46:24;;;;;;;13.95;11.82;;;;;;;;;;5027308;28;20210;-78
2022/03/21 01:48:51;;;;;;;16.48;13.15;;;;;;;;;;5031789;28;20214;-78
2022/03/21 01:51:19;;;;;;;18.33;14.10;;;;;;;;;;5030883;28;20219;-78
2022/03/21 01:56:31;;;;;;;19.55;13.77;;;;;;;;;;5025652;28;20198;-78
2022/03/21 01:58:58;;;;;;;14.05;12.55;;;;;;;;;;5031213;28;20778;-79
2022/03/21 02:01:27;;;;;;;12.60;10.63;;;;;;;;;;5031658;28;20647;-78
2022/03/21 02:03:54;;;;;;;15.98;12.02;;;;;;;;;;5027869;28;20203;-78
2022/03/21 02:06:21;;;;;;;24.55;16.10;;;;;;;;;;5030356;28;20651;-79
2022/03/21 02:08:49;;;;;;;18.92;14.73;;;;;;;;;;5031194;28;20713;-78
2022/03/21 02:11:16;;;;;;;13.73;12.20;;;;;;;;;;5030454;28;20211;-79
2022/03/21 02:13:43;;;;;;;17.80;13.80;;;;;;;;;;5031625;28;20579;-79
2022/03/21 02:16:11;;;;;;;17.40;12.40;;;;;;;;;;5027942;28;20227;-78
2022/03/21 02:18:40;;;;;;;16.60;13.07;;;;;;;;;;5029710;28;20199;-78
2022/03/21 02:21:09;;;;;;;13.65;10.63;;;;;;;;;;5031778;28;20670;-79
2022/03/21 02:23:40;;;;;;;14.70;12.73;;;;;;;;;;5030261;28;20210;-79
2022/03/21 02:26:09;;;;;;;16.95;14.45;;;;;;;;;;5022831;28;20613;-79
2022/03/21 02:28:37;;;;;;;16.90;13.48;;;;;;;;;;5030668;28;20196;-78
2022/03/21 02:31:04;;;;;;;13.43;10.52;;;;;;;;;;5029141;28;20211;-78
2022/03/21 02:33:31;;;;;;;15.52;13.18;;;;;;;;;;5030155;28;20653;-80
2022/03/21 02:35:59;;;;;;;13.98;10.93;;;;;;;;;;5030913;28;20570;-80
2022/03/21 02:38:26;;;;;;;18.23;13.30;;;;;;;;;;5029235;28;20204;-79
2022/03/21 02:40:53;;;;;;;12.13;10.48;;;;;;;;;;5030227;28;20199;-79
2022/03/21 02:43:22;;;;;;;16.85;13.75;;;;;;;;;;5025954;28;20195;-79
2022/03/21 02:45:49;;;;;;;12.90;10.85;;;;;;;;;;5022778;28;20199;-80
2022/03/21 02:48:18;;;;;;;15.32;12.90;;;;;;;;;;5036467;28;20231;-79
2022/03/21 02:50:50;;;;;;;14.77;12.50;;;;;;;;;;5031893;28;20219;-79
2022/03/21 02:53:18;;;;;;;15.02;12.65;;;;;;;;;;5032149;28;20191;-79
2022/03/21 02:55:46;;;;;;;14.00;11.38;;;;;;;;;;5026199;28;20737;-79
2022/03/21 02:58:13;;;;;;;17.05;13.85;;;;;;;;;;5030036;28;20662;-80
2022/03/21 03:00:41;;;;;;;14.82;11.85;;;;;;;;;;5030141;28;20643;-80
2022/03/21 03:03:08;;;;;;;15.30;12.40;;;;;;;;;;5030380;28;20194;-80
2022/03/21 03:05:35;;;;;;;16.52;12.10;;;;;;;;;;5030420;28;20196;-79
2022/03/21 03:08:03;;;;;;;18.08;12.48;;;;;;;;;;5023899;28;20556;-79
2022/03/21 03:10:30;;;;;;;14.98;12.38;;;;;;;;;;5032843;28;20202;-78
2022/03/21 03:12:57;;;;;;;16.48;13.52;;;;;;;;;;5028388;28;20199;-78
2022/03/21 03:15:24;;;;;;;20.77;14.60;;;;;;;;;;5019580;28;20207;-78
2022/03/21 03:17:53;;;;;;;19.60;14.75;;;;;;;;;;5030428;28;20196;-78
2022/03/21 03:20:21;;;;;;;16.67;11.90;;;;;;;;;;5028854;28;20196;-79
2022/03/21 03:22:49;;;;;;;15.38;12.43;;;;;;;;;;5026759;28;20204;-80
2022/03/21 03:25:16;;;;;;;13.32;11.73;;;;;;;;;;5030545;28;20574;-78
2022/03/21 03:27:43;;;;;;;18.55;14.15;;;;;;;;;;5027786;28;20191;-77
2022/03/21 03:30:10;;;;;;;16.67;12.60;;;;;;;;;;5029312;28;20214;-77
2022/03/21 03:32:39;;;;;;;16.35;11.40;;;;;;;;;;5029358;28;20220;-78
2022/03/21 03:35:09;;;;;;;15.48;13.82;;;;;;;;;;5030385;28;20211;-78
2022/03/21 03:37:36;;;;;;;19.65;13.20;;;;;;;;;;5032977;28;20662;-79
2022/03/21 03:40:03;;;;;;;17.50;13.13;;;;;;;;;;5033955;28;20223;-78
2022/03/21 03:42:30;;;;;;;15.93;12.68;;;;;;;;;;5032190;28;20187;-78
2022/03/21 03:44:57;;;;;;;19.45;14.07;;;;;;;;;;5030151;28;20196;-77
2022/03/21 03:47:24;;;;;;;17.42;13.10;;;;;;;;;;5038507;28;21000;-79
2022/03/21 03:49:52;;;;;;;15.73;12.52;;;;;;;;;;5035927;28;20215;-78
2022/03/21 03:52:20;;;;;;;17.33;14.48;;;;;;;;;;5032909;28;20298;-78
2022/03/21 03:54:47;;;;;;;18.70;13.80;;;;;;;;;;5028758;28;20621;-78
2022/03/21 03:57:14;;;;;;;15.90;13.73;;;;;;;;;;5033468;28;20207;-79
2022/03/21 03:59:42;;;;;;;15.45;12.63;;;;;;;;;;5026030;28;20703;-78
2022/03/21 04:02:10;;;;;;;14.10;11.80;;;;;;;;;;5033553;28;20599;-78
2022/03/21 04:04:37;;;;;;;14.88;12.32;;;;;;;;;;5034329;28;20204;-79
2022/03/21 04:07:04;;;;;;;13.85;11.35;;;;;;;;;;5038903;28;20207;-79
2022/03/21 04:09:32;;;;;;;17.80;13.73;;;;;;;;;;5039275;28;20187;-79
2022/03/21 04:11:59;;;;;;;16.50;12.93;;;;;;;;;;5042355;28;20271;-79
2022/03/21 04:14:27;;;;;;;17.38;13.05;;;;;;;;;;5035541;28;20242;-78
2022/03/21 04:16:54;;;;;;;20.63;13.52;;;;;;;;;;5032288;28;20206;-78
2022/03/21 04:19:21;;;;;;;16.98;13.25;;;;;;;;;;5031721;28;20196;-78
2022/03/21 04:21:49;;;;;;;19.55;14.95;;;;;;;;;;5032691;28;20579;-78
2022/03/21 04:24:16;;;;;;;13.93;12.13;;;;;;;;;;5031001;28;20196;-78
2022/03/21 04:26:45;;;;;;;15.45;13.73;;;;;;;;;;5031140;28;20286;-78
2022/03/21 04:29:13;;;;;;;21.60;13.68;;;;;;;;;;5030357;28;20203;-79
2022/03/21 04:31:40;;;;;;;13.07;11.15;;;;;;;;;;5036194;28;20211;-79
2022/03/21 04:34:07;;;;;;;15.15;12.50;;;;;;;;;;5031701;28;20214;-79
2022/03/21 04:36:34;;;;;;;15.82;13.05;;;;;;;;;;5031788;28;20218;-79
2022/03/21 04:39:01;;;;;;;18.70;14.23;;;;;;;;;;5029744;28;20199;-79
2022/03/21 04:41:28;;;;;;;17.13;12.50;;;;;;;;;;5029802;28;20191;-79
2022/03/21 04:43:57;;;;;;;17.63;13.32;;;;;;;;;;5029607;28;20679;-78
2022/03/21 04:46:25;;;;;;;16.73;11.85;;;;;;;;;;5023304;28;20646;-79
2022/03/21 04:48:52;;;;;;;20.13;14.13;;;;;;;;;;5032775;28;20666;-77
2022/03/21 04:51:19;;;;;;;15.52;12.60;;;;;;;;;;5031683;28;20573;-79
2022/03/21 04:53:46;;;;;;;16.00;13.13;;;;;;;;;;5025734;28;20482;-79
2022/03/21 04:56:13;;;;;;;16.90;12.23;;;;;;;;;;5032160;28;20418;-79
2022/03/21 04:58:40;;;;;;;16.83;14.00;;;;;;;;;;5030717;28;20207;-78
2022/03/21 05:01:09;;;;;;;17.55;14.70;;;;;;;;;;5028674;28;20418;-78
2022/03/21 05:03:36;;;;;;;16.63;11.73;;;;;;;;;;5029915;28;20714;-78
2022/03/21 05:06:03;;;;;;;13.95;11.18;;;;;;;;;;5031858;28;20273;-79
2022/03/21 05:08:30;;;;;;;16.52;13.65;;;;;;;;;;5031888;28;20598;-78
2022/03/21 05:10:57;;;;;;;16.52;12.95;;;;;;;;;;5030928;28;20681;-78
2022/03/21 05:13:24;;;;;;;18.70;13.70;;;;;;;;;;5029533;28;20208;-79
2022/03/21 05:15:51;;;;;;;19.02;14.95;;;;;;;;;;5030297;28;20199;-79
2022/03/21 05:18:22;;;;;;;16.92;13.70;;;;;;;;;;5014029;28;20280;-79
2022/03/21 05:20:49;;;;;;;15.98;13.75;;;;;;;;;;5033045;28;20242;-79
2022/03/21 05:31:30;;;;;;;14.48;12.50;;;;;;;;;;5029326;28;20301;-79
2022/03/21 05:36:43;;;;;;;16.00;13.65;;;;;;;;;;5015847;28;20200;-79
2022/03/21 05:39:10;;;;;;;18.30;14.02;;;;;;;;;;5018748;28;20199;-78
2022/03/21 05:41:37;;;;;;;20.75;15.10;;;;;;;;;;5029906;28;20187;-79
2022/03/21 05:44:05;;;;;;;17.17;12.60;;;;;;;;;;5026441;28;20192;-78
2022/03/21 05:46:32;;;;;;;20.02;14.48;;;;;;;;;;5026734;28;20198;-79
2022/03/21 05:49:00;;;;;;;16.67;13.30;;;;;;;;;;5031641;28;20199;-79
2022/03/21 05:51:28;;;;;;;17.35;15.18;;;;;;;;;;5035014;28;20243;-79
2022/03/21 05:53:56;;;;;;;16.02;13.50;;;;;;;;;;5040019;28;20226;-79
2022/03/21 05:56:25;;;;;;;16.00;14.30;;;;;;;;;;5038514;28;20215;-78
2022/03/21 05:58:52;;;;;;;20.35;13.70;;;;;;;;;;5036941;28;20267;-79
2022/03/21 06:01:22;;;;;;;16.75;14.02;;;;;;;;;;5039579;28;20237;-79
2022/03/21 06:03:49;;;;;;;19.23;14.10;;;;;;;;;;5034060;28;20677;-78
2022/03/21 06:06:18;;;;;;;18.67;14.35;;;;;;;;;;5030662;28;20214;-79
2022/03/21 06:08:45;;;;;;;17.60;13.82;;;;;;;;;;5039417;28;20210;-79
2022/03/21 06:11:13;;;;;;;14.75;12.52;;;;;;;;;;5031501;28;20188;-79
2022/03/21 06:13:43;;;;;;;18.02;14.30;;;;;;;;;;5030345;28;20196;-78
2022/03/21 06:16:11;;;;;;;17.80;13.95;;;;;;;;;;5029689;28;20210;-79
2022/03/21 06:18:39;;;;;;;19.23;14.85;;;;;;;;;;5030889;28;20206;-79
2022/03/21 06:21:07;;;;;;;17.75;13.20;;;;;;;;;;5030852;28;20203;-78
2022/03/21 06:23:36;;;;;;;16.15;14.40;;;;;;;;;;5026928;28;20250;-79
2022/03/21 06:26:03;;;;;;;22.08;14.73;;;;;;;;;;5029202;28;20579;-80
2022/03/21 06:28:31;;;;;;;21.20;15.13;;;;;;;;;;5027670;28;20230;-79
2022/03/21 06:30:58;;;;;;;18.27;13.30;;;;;;;;;;5029186;28;20574;-79
2022/03/21 06:33:26;;;;;;;23.90;15.63;;;;;;;;;;5030501;28;20302;-79
2022/03/21 06:35:54;;;;;;;19.27;13.88;;;;;;;;;;5030557;28;20199;-78
2022/03/21 06:38:21;;;;;;;18.25;14.35;;;;;;;;;;5027113;28;20204;-78
2022/03/21 06:40:50;;;;;;;17.63;14.15;;;;;;;;;;5030937;28;20571;-78
2022/03/21 06:43:20;;;;;;;19.80;13.40;;;;;;;;;;5025369;28;20226;-78
2022/03/21 06:45:50;;;;;;;20.90;14.48;;;;;;;;;;5026167;28;20210;-78
2022/03/21 06:48:17;;;;;;;20.60;14.95;;;;;;;;;;5029810;28;20287;-79
2022/03/21 06:50:46;;;;;;;23.77;14.95;;;;;;;;;;5028965;28;20235;-79
2022/03/21 06:53:13;;;;;;;19.08;14.38;;;;;;;;;;5026281;28;20712;-79
2022/03/21 06:55:40;;;;;;;27.13;14.90;;;;;;;;;;5030253;28;20269;-79
2022/03/21 06:58:11;;;;;;;21.25;13.30;;;;;;;;;;5029820;28;20196;-77
2022/03/21 07:00:39;;;;;;;20.05;14.38;;;;;;;;;;5030901;28;20655;-77
2022/03/21 07:03:06;;;;;;;17.20;13.10;;;;;;;;;;5024947;28;20710;-77
2022/03/21 07:05:33;;;;;;;19.20;13.32;;;;;;;;;;5031165;28;20196;-78
2022/03/21 07:08:00;;;;;;;20.67;13.82;;;;;;;;;;5029481;28;20207;-78
2022/03/21 07:10:27;;;;;;;16.05;13.57;;;;;;;;;;5034894;28;20670;-79
2022/03/21 07:12:54;;;;;;;15.65;12.18;;;;;;;;;;5030757;28;20215;-79
2022/03/21 07:15:23;;;;;;;17.88;13.93;;;;;;;;;;5020728;28;20196;-78
2022/03/21 07:17:51;;;;;;;16.58;12.15;;;;;;;;;;5019807;28;20204;-78
2022/03/21 07:20:20;;;;;;;19.58;13.20;;;;;;;;;;5021706;28;20200;-78
2022/03/21 07:22:47;;;;;;;15.90;11.07;;;;;;;;;;5033342;28;20195;-79
2022/03/21 07:25:14;;;;;;;15.30;11.75;;;;;;;;;;5045854;28;20192;-78
2022/03/21 07:27:44;;;;;;;14.50;11.50;;;;;;;;;;5029225;28;20697;-78
2022/03/21 07:30:12;;;;;;;16.38;12.95;;;;;;;;;;5025582;28;20207;-78
2022/03/21 07:32:41;;;;;;;13.57;12.20;;;;;;;;;;5025992;28;20686;-78
2022/03/21 07:35:08;;;;;;;14.10;11.60;;;;;;;;;;5036500;28;20260;-79
2022/03/21 07:37:40;;;;;;;14.13;11.68;;;;;;;;;;5031282;28;20204;-78
2022/03/21 07:40:10;;;;;;;13.75;11.90;;;;;;;;;;5035124;28;20663;-78
2022/03/21 07:42:37;;;;;;;14.55;10.55;;;;;;;;;;5034956;28;20202;-79
2022/03/21 07:47:51;;;;;;;12.00;10.38;;;;;;;;;;5030962;28;20234;-78
2022/03/21 07:50:19;;;;;;;14.20;10.55;;;;;;;;;;5035271;28;20234;-77
2022/03/21 07:52:47;;;;;;;13.55;10.50;;;;;;;;;;5031107;28;20219;-78
2022/03/21 07:55:14;;;;;;;10.77;9.50;;;;;;;;;;5026611;28;20223;-78
2022/03/21 07:57:41;;;;;;;15.60;10.52;;;;;;;;;;5031006;28;20192;-79
2022/03/21 08:00:09;;;;;;;10.40;9.13;;;;;;;;;;5033475;28;20199;-79
2022/03/21 08:02:37;;;;;;;11.93;9.95;;;;;;;;;;5024284;28;20222;-78
2022/03/21 08:05:07;;;;;;;10.48;9.38;;;;;;;;;;5032607;28;20210;-78
2022/03/21 08:07:35;;;;;;;10.00;8.98;;;;;;;;;;5032824;28;20222;-79
2022/03/21 08:10:03;;;;;;;15.68;10.65;;;;;;;;;;5031197;28;20199;-78
2022/03/21 08:12:31;;;;;;;11.23;9.45;;;;;;;;;;5029428;28;20294;-79
2022/03/21 08:14:59;;;;;;;10.15;8.57;;;;;;;;;;5033127;28;20203;-78
2022/03/21 08:17:27;;;;;;;12.77;9.80;;;;;;;;;;5032966;28;20650;-78
2022/03/21 08:19:55;;;;;;;10.40;8.70;;;;;;;;;;5032662;28;20635;-79
2022/03/21 08:22:23;;;;;;;11.80;9.70;;;;;;;;;;5030156;28;20662;-79
2022/03/21 08:24:52;;;;;;;11.07;8.63;;;;;;;;;;5031837;28;20656;-78
2022/03/21 08:27:19;;;;;;;9.85;8.52;;;;;;;;;;5030650;28;20639;-78
2022/03/21 08:29:46;;;;;;;14.55;9.73;;;;;;;;;;5033312;28;20207;-79
2022/03/21 08:32:13;;;;;;;9.13;8.20;;;;;;;;;;5029522;28;20337;-78
2022/03/21 08:34:40;;;;;;;11.40;9.40;;;;;;;;;;5029834;28;20204;-78
2022/03/21 08:37:07;;;;;;;10.55;8.55;;;;;;;;;;5026185;28;20567;-79
2022/03/21 08:39:36;;;;;;;9.43;8.43;;;;;;;;;;5031542;28;20191;-78
2022/03/21 08:42:03;;;;;;;9.70;8.05;;;;;;;;;;5027855;28;20199;-78
2022/03/21 08:44:30;;;;;;;9.00;7.53;;;;;;;;;;5025729;28;20201;-79
2022/03/21 08:46:57;;;;;;;9.43;7.88;;;;;;;;;;5033064;28;20195;-79
2022/03/21 08:49:27;;;;;;;13.55;9.77;;;;;;;;;;5032989;28;20203;-80
2022/03/21 08:51:54;;;;;;;11.95;7.50;;;;;;;;;;5023732;28;20203;-80
2022/03/21 08:54:22;;;;;;;10.13;8.52;;;;;;;;;;5032003;28;20567;-80
2022/03/21 08:56:50;;;;;;;9.13;7.35;;;;;;;;;;5032450;28;20210;-78
2022/03/21 08:59:18;;;;;;;8.35;7.53;;;;;;;;;;5027101;28;20199;-78
2022/03/21 09:01:45;;;;;;;10.77;8.00;;;;;;;;;;5031971;28;20199;-78
2022/03/21 09:04:12;;;;;;;9.82;7.65;;;;;;;;;;5032905;28;20199;-78
2022/03/21 09:06:40;;;;;;;8.52;7.30;;;;;;;;;;5031830;28;20277;-77
2022/03/21 09:09:07;;;;;;;8.50;7.70;;;;;;;;;;5024275;28;20206;-78
2022/03/21 09:11:34;;;;;;;7.13;6.43;;;;;;;;;;5033388;28;20196;-79
2022/03/21 09:14:02;;;;;;;9.48;8.50;;;;;;;;;;5031034;28;20711;-78
2022/03/21 09:16:30;;;;;;;7.80;7.10;;;;;;;;;;5031272;28;20195;-78
2022/03/21 09:18:57;;;;;;;9.88;8.38;;;;;;;;;;5032759;28;20200;-78
2022/03/21 09:21:24;;;;;;;8.98;8.02;;;;;;;;;;5032158;28;20203;-78
2022/03/21 09:23:52;;;;;;;12.50;8.02;;;;;;;;;;5019734;28;20559;-78
2022/03/21 09:26:21;;;;;;;9.63;8.43;;;;;;;;;;5031992;28;20191;-78
2022/03/21 09:28:49;;;;;;;10.15;8.75;;;;;;;;;;5032096;28;20660;-78
2022/03/21 09:31:18;;;;;;;9.95;7.82;;;;;;;;;;5026090;28;20203;-79
2022/03/21 09:33:45;;;;;;;11.25;8.25;;;;;;;;;;5031603;28;20231;-79
2022/03/21 09:36:13;;;;;;;8.35;6.93;;;;;;;;;;5028183;28;20203;-79
2022/03/21 09:38:41;;;;;;;9.48;8.40;;;;;;;;;;5028580;28;20629;-81
2022/03/21 09:41:12;;;;;;;8.50;7.60;;;;;;;;;;5031677;28;20219;-81
2022/03/21 09:43:40;;;;;;;11.82;7.75;;;;;;;;;;5032055;28;20192;-80
2022/03/21 09:46:08;;;;;;;9.32;7.43;;;;;;;;;;5029302;28;20249;-80
2022/03/21 09:48:37;;;;;;;9.45;8.45;;;;;;;;;;5028171;28;20214;-80
2022/03/21 09:51:04;;;;;;;9.18;7.75;;;;;;;;;;5026663;28;20206;-79
2022/03/21 09:53:31;;;;;;;8.82;7.90;;;;;;;;;;5027654;28;20223;-79
2022/03/21 09:55:58;;;;;;;9.30;7.03;;;;;;;;;;5030313;28;20717;-80
2022/03/21 09:58:27;;;;;;;13.95;10.57;;;;;;;;;;5030221;28;20253;-80
2022/03/21 10:00:54;;;;;;;12.55;9.27;;;;;;;;;;5021543;28;20305;-80
2022/03/21 10:03:22;;;;;;;11.77;9.77;;;;;;;;;;5030450;28;20196;-79
2022/03/21 10:05:50;;;;;;;9.30;8.25;;;;;;;;;;5028426;28;20203;-81
2022/03/21 10:08:20;;;;;;;10.48;7.40;;;;;;;;;;5019709;28;20622;-77
2022/03/21 10:10:52;;;;;;;11.65;8.68;;;;;;;;;;5030580;28;20230;-77
2022/03/21 10:13:19;;;;;;;10.35;8.50;;;;;;;;;;5024609;28;20223;-78
2022/03/21 10:15:46;;;;;;;12.40;9.70;;;;;;;;;;5030251;28;20199;-78
2022/03/21 10:18:14;;;;;;;11.32;9.23;;;;;;;;;;5030682;28;20195;-78
2022/03/21 10:20:41;;;;;;;11.23;8.40;;;;;;;;;;5030763;28;20286;-78
2022/03/21 10:23:22;;;;;;;12.38;7.90;;;;;;;;;;5031214;28;20199;-78
2022/03/21 10:25:49;;;;;;;8.65;7.53;;;;;;;;;;5015508;28;20283;-77
2022/03/21 10:28:35;;;;;;;11.35;10.18;;;;;;;;;;5030442;28;20192;-78
2022/03/21 10:31:02;;;;;;;10.20;8.57;;;;;;;;;;5047580;28;20202;-77
2022/03/21 10:33:29;;;;;;;13.45;9.60;;;;;;;;;;5034859;28;20215;-77
2022/03/21 10:35:57;;;;;;;9.68;8.43;;;;;;;;;;5030779;28;20206;-78
2022/03/21 10:38:31;;;;;;;12.05;9.20;;;;;;;;;;5030524;28;20207;-78
2022/03/21 10:40:58;;;;;;;10.27;8.50;;;;;;;;;;5031404;28;20205;-77
2022/03/21 10:43:25;;;;;;;15.02;9.52;;;;;;;;;;5023961;28;20188;-78
2022/03/21 10:45:53;;;;;;;12.32;9.15;;;;;;;;;;5032556;28;20200;-77
2022/03/21 10:48:21;;;;;;;14.15;8.82;;;;;;;;;;5034035;28;20203;-78
2022/03/21 10:50:49;;;;;;;14.07;10.30;;;;;;;;;;5033958;28;20685;-77
2022/03/21 10:53:17;;;;;;;13.40;9.68;;;;;;;;;;5033113;28;20215;-78
2022/03/21 10:55:46;;;;;;;11.43;9.18;;;;;;;;;;5034403;28;20583;-78
2022/03/21 10:58:14;;;;;;;12.80;10.43;;;;;;;;;;5033653;28;20199;-77
2022/03/21 11:00:41;;;;;;;10.95;9.45;;;;;;;;;;5032072;28;20672;-77
2022/03/21 11:03:12;;;;;;;10.25;8.88;;;;;;;;;;5034265;28;20195;-78
2022/03/21 11:05:41;;;;;;;10.65;8.93;;;;;;;;;;5033258;28;20207;-77
2022/03/21 11:08:09;;;;;;;12.32;9.02;;;;;;;;;;5032735;28;20211;-78
2022/03/21 11:10:37;;;;;;;11.45;9.20;;;;;;;;;;5034281;28;20584;-78
2022/03/21 11:13:05;;;;;;;12.63;9.73;;;;;;;;;;5034010;28;20269;-78
2022/03/21 11:15:33;;;;;;;16.17;10.38;;;;;;;;;;5034668;28;20200;-78
2022/03/21 11:18:00;;;;;;;14.25;8.88;;;;;;;;;;5034594;28;20201;-77
2022/03/21 11:20:29;;;;;;;13.40;9.52;;;;;;;;;;5034411;28;20207;-78
2022/03/21 11:22:57;;;;;;;15.07;11.38;;;;;;;;;;5034041;28;20231;-77
2022/03/21 11:25:25;;;;;;;16.38;10.32;;;;;;;;;;5035646;28;20206;-78
2022/03/21 11:28:11;;;;;;;12.23;9.85;;;;;;;;;;5034230;28;20540;-78
2022/03/21 11:30:56;;;;;;;14.02;9.40;;;;;;;;;;5031582;28;20199;-78
2022/03/21 11:33:32;;;;;;;13.70;10.55;;;;;;;;;;5025447;28;20258;-77
2022/03/21 11:36:01;;;;;;;12.23;10.82;;;;;;;;;;5031787;28;20210;-78
2022/03/21 11:38:28;;;;;;;15.73;10.75;;;;;;;;;;5026176;28;20192;-78
2022/03/21 11:41:10;;;;;;;13.82;10.85;;;;;;;;;;5033464;28;20705;-78
2022/03/21 11:43:37;;;;;;;13.30;10.68;;;;;;;;;;5032260;28;20192;-79
2022/03/21 11:46:22;;;;;;;14.27;10.95;;;;;;;;;;5026189;28;20643;-78
2022/03/21 11:48:50;;;;;;;14.80;11.18;;;;;;;;;;5021886;28;20227;-77
2022/03/21 11:51:36;;;;;;;14.50;10.77;;;;;;;;;;5033592;28;20192;-77
2022/03/21 11:54:04;;;;;;;16.50;11.20;;;;;;;;;;5030189;28;20216;-78
2022/03/21 11:56:50;;;;;;;15.68;11.15;;;;;;;;;;5031049;28;20203;-77
2022/03/21 11:59:32;;;;;;;13.90;10.45;;;;;;;;;;5031162;28;20195;-76
2022/03/21 12:01:59;;;;;;;11.57;9.43;;;;;;;;;;5022731;28;20207;-77
2022/03/21 12:04:31;;;;;;;12.05;10.63;;;;;;;;;;5029940;28;20245;-78
2022/03/21 12:06:58;;;;;;;12.18;10.45;;;;;;;;;;5029976;28;20617;-77
2022/03/21 12:09:25;;;;;;;12.70;11.07;;;;;;;;;;5026905;28;20196;-78
2022/03/21 12:11:58;;;;;;;16.30;11.65;;;;;;;;;;5030564;28;20195;-77
2022/03/21 12:14:28;;;;;;;12.73;8.85;;;;;;;;;;5028525;28;20208;-78
2022/03/21 12:17:14;;;;;;;12.23;9.85;;;;;;;;;;5031982;28;20199;-77
2022/03/21 12:20:02;;;;;;;17.42;11.48;;;;;;;;;;5032064;28;20222;-78
2022/03/21 12:22:36;;;;;;;15.55;10.43;;;;;;;;;;5029695;28;20254;-78
2022/03/21 12:25:07;;;;;;;14.40;10.30;;;;;;;;;;5028774;28;20234;-77
2022/03/21 12:27:34;;;;;;;15.38;11.00;;;;;;;;;;5028016;28;20651;-78
2022/03/21 12:30:23;;;;;;;16.70;13.10;;;;;;;;;;5041005;28;20198;-78
2022/03/21 12:32:52;;;;;;;14.40;11.10;;;;;;;;;;5019898;28;20658;-79
2022/03/21 12:35:35;;;;;;;14.60;11.32;;;;;;;;;;5028246;28;20211;-77
2022/03/21 12:38:03;;;;;;;12.30;10.93;;;;;;;;;;5014206;28;20585;-78
2022/03/21 12:40:31;;;;;;;19.77;10.63;;;;;;;;;;5031620;28;20210;-78
2022/03/21 12:42:58;;;;;;;10.43;8.10;;;;;;;;;;5029667;28;20647;-78
2022/03/21 12:45:25;;;;;;;13.23;10.80;;;;;;;;;;5018449;28;20195;-76
2022/03/21 12:47:52;;;;;;;11.00;9.27;;;;;;;;;;5027130;28;20207;-78
2022/03/21 12:50:20;;;;;;;12.77;10.27;;;;;;;;;;5030947;28;20570;-78
2022/03/21 12:52:53;;;;;;;13.52;10.88;;;;;;;;;;5016875;28;20195;-79
2022/03/21 12:55:22;;;;;;;11.18;10.07;;;;;;;;;;5030887;28;20227;-78
2022/03/21 12:57:56;;;;;;;17.05;10.98;;;;;;;;;;5023105;28;20211;-77
2022/03/21 13:00:27;;;;;;;13.95;10.68;;;;;;;;;;5016964;28;20207;-78
2022/03/21 13:02:56;;;;;;;12.95;9.73;;;;;;;;;;5028737;28;20205;-78
2022/03/21 13:10:56;;;;;;;9.95;8.13;;;;;;;;;;5028721;28;20250;-78
2022/03/21 13:13:24;;;;;;;13.00;10.30;;;;;;;;;;5031833;28;20269;-78
2022/03/21 13:16:08;;;;;;;13.93;9.05;;;;;;;;;;5031413;28;20199;-77
2022/03/21 13:18:39;;;;;;;10.32;9.00;;;;;;;;;;5024056;28;20227;-78
2022/03/21 13:21:07;;;;;;;13.98;9.43;;;;;;;;;;5031005;28;20202;-78
2022/03/21 13:23:37;;;;;;;11.48;9.20;;;;;;;;;;5031726;28;20274;-78
2022/03/21 13:26:13;;;;;;;13.00;10.20;;;;;;;;;;5011633;28;20208;-79
2022/03/21 13:28:42;;;;;;;16.80;9.95;;;;;;;;;;5021924;28;20195;-78
2022/03/21 13:31:11;;;;;;;13.48;10.00;;;;;;;;;;5022426;28;20187;-78
2022/03/21 13:33:39;;;;;;;11.50;9.07;;;;;;;;;;5030473;28;20287;-78
2022/03/21 13:36:07;;;;;;;10.10;8.82;;;;;;;;;;5031051;28;20207;-77
2022/03/21 13:38:36;;;;;;;10.48;8.88;;;;;;;;;;5024413;28;20195;-78
2022/03/21 13:41:12;;;;;;;10.25;8.85;;;;;;;;;;5028447;28;20215;-78
2022/03/21 13:43:41;;;;;;;19.23;8.18;;;;;;;;;;5022972;28;20196;-77
2022/03/21 13:46:09;;;;;;;9.55;7.40;;;;;;;;;;5019623;28;20218;-78
2022/03/21 13:48:40;;;;;;;12.48;9.75;;;;;;;;;;5022645;28;20574;-77
2022/03/21 13:51:08;;;;;;;10.10;8.38;;;;;;;;;;5031940;28;20218;-78
2022/03/21 13:53:40;;;;;;;13.52;10.23;;;;;;;;;;5030073;28;20269;-79
2022/03/21 13:56:10;;;;;;;10.65;8.23;;;;;;;;;;5029723;28;20215;-78
2022/03/21 13:58:37;;;;;;;11.57;8.55;;;;;;;;;;5000828;28;20720;-77
2022/03/21 14:01:18;;;;;;;12.13;8.40;;;;;;;;;;5008880;28;20199;-78
2022/03/21 14:03:48;;;;;;;9.88;7.75;;;;;;;;;;5017592;28;20576;-77
2022/03/21 14:06:15;;;;;;;9.57;8.30;;;;;;;;;;4997219;28;20559;-78
2022/03/21 14:08:42;;;;;;;10.20;7.80;;;;;;;;;;5007071;28;20208;-78
2022/03/21 14:11:12;;;;;;;14.40;7.90;;;;;;;;;;4992971;28;20452;-78
2022/03/21 14:13:41;;;;;;;11.40;8.05;;;;;;;;;;4999912;28;20207;-77
2022/03/21 14:16:09;;;;;;;10.43;8.43;;;;;;;;;;4993089;28;20211;-78
2022/03/21 14:18:37;;;;;;;11.15;9.00;;;;;;;;;;4992090;28;20212;-78
2022/03/21 14:21:05;;;;;;;9.98;7.93;;;;;;;;;;5004307;28;20208;-78
2022/03/21 14:23:32;;;;;;;12.07;8.30;;;;;;;;;;5003942;28;20205;-78
2022/03/21 14:28:45;;;;;;;9.10;7.60;;;;;;;;;;5001425;28;20200;-78
2022/03/21 14:31:14;;;;;;;9.45;7.68;;;;;;;;;;5000224;28;20223;-78
2022/03/21 14:33:41;;;;;;;10.05;7.10;;;;;;;;;;5001515;28;20208;-79
2022/03/21 14:36:09;;;;;;;10.30;6.78;;;;;;;;;;5002138;28;20196;-78
2022/03/21 14:38:37;;;;;;;8.23;6.55;;;;;;;;;;4996164;28;20205;-78
2022/03/21 14:41:05;;;;;;;9.68;6.50;;;;;;;;;;5004128;28;20203;-77
2022/03/21 14:43:32;;;;;;;8.70;6.60;;;;;;;;;;4998514;28;20201;-78
2022/03/21 14:46:01;;;;;;;11.25;6.70;;;;;;;;;;5004129;28;20192;-78
2022/03/21 14:48:30;;;;;;;8.85;7.30;;;;;;;;;;5005835;28;20699;-78
2022/03/21 14:50:58;;;;;;;8.73;5.70;;;;;;;;;;5004609;28;20218;-80
2022/03/21 14:53:26;;;;;;;8.93;7.07;;;;;;;;;;5003224;28;20258;-80
2022/03/21 14:55:54;;;;;;;10.02;6.97;;;;;;;;;;5002695;28;20459;-79